createdAt,value
2022-08-02T00:00:39.371Z,20.11
2022-08-02T00:03:06.742Z,20.14
2022-08-02T00:05:34.055Z,20.13
2022-08-02T00:08:01.886Z,20.11
2022-08-02T00:10:30.442Z,20.08
2022-08-02T00:12:58.220Z,20.08
2022-08-02T00:15:26.283Z,20.04
2022-08-02T00:17:53.536Z,20.02
2022-08-02T00:20:20.916Z,19.96
2022-08-02T00:22:48.292Z,19.91
2022-08-02T00:25:15.546Z,19.89
2022-08-02T00:27:42.834Z,19.87
2022-08-02T00:30:10.727Z,19.82
2022-08-02T00:32:37.956Z,19.83
2022-08-02T00:35:05.848Z,19.84
2022-08-02T00:37:33.044Z,19.80
2022-08-02T00:40:00.232Z,19.77
2022-08-02T00:42:27.381Z,19.77
2022-08-02T00:44:54.562Z,19.76
2022-08-02T00:47:21.778Z,19.74
2022-08-02T00:49:49.093Z,19.75
2022-08-02T00:52:16.338Z,19.74
2022-08-02T00:54:43.589Z,19.74
2022-08-02T00:57:12.161Z,19.74
2022-08-02T00:59:39.733Z,19.75
2022-08-02T01:02:06.976Z,19.75
2022-08-02T01:04:34.294Z,19.76
2022-08-02T01:07:12.834Z,19.73
2022-08-02T01:09:45.485Z,19.57
2022-08-02T01:12:14.371Z,19.61
2022-08-02T01:14:49.762Z,19.71
2022-08-02T01:17:32.976Z,19.68
2022-08-02T01:20:41.972Z,19.68
2022-08-02T01:23:39.084Z,19.54
2022-08-02T01:26:24.770Z,19.56
2022-08-02T01:29:02.688Z,19.56
2022-08-02T01:32:08.491Z,19.56
2022-08-02T01:35:07.862Z,19.58
2022-08-02T01:38:07.508Z,19.63
2022-08-02T01:40:39.687Z,19.59
2022-08-02T01:43:12.250Z,19.59
2022-08-02T01:45:42.805Z,19.57
2022-08-02T01:48:13.174Z,19.57
2022-08-02T01:50:43.821Z,19.55
2022-08-02T01:53:14.065Z,19.54
2022-08-02T01:55:57.839Z,19.55
2022-08-02T01:58:31.041Z,19.44
2022-08-02T02:01:01.016Z,19.37
2022-08-02T02:03:33.716Z,19.28
2022-08-02T02:06:06.767Z,19.28
2022-08-02T02:08:41.656Z,19.27
2022-08-02T02:12:09.429Z,19.24
2022-08-02T02:14:03.445Z,19.13
2022-08-02T02:16:33.494Z,19.11
2022-08-02T02:19:04.050Z,19.12
2022-08-02T02:21:31.759Z,19.12
2022-08-02T02:24:00.147Z,19.12
2022-08-02T02:26:31.377Z,19.11
2022-08-02T02:29:04.418Z,19.08
2022-08-02T02:31:40.752Z,19.12
2022-08-02T02:34:18.060Z,19.13
2022-08-02T02:36:51.433Z,19.14
2022-08-02T02:39:23.447Z,19.11
2022-08-02T02:41:53.463Z,19.09
2022-08-02T02:44:22.789Z,19.10
2022-08-02T02:46:55.494Z,19.05
2022-08-02T02:49:25.369Z,19.04
2022-08-02T02:51:53.834Z,19.06
2022-08-02T02:54:30.633Z,19.03
2022-08-02T02:57:03.455Z,19.03
2022-08-02T02:59:32.753Z,19.01
2022-08-02T03:02:01.368Z,18.99
2022-08-02T03:04:55.382Z,19.00
2022-08-02T03:07:18.127Z,19.04
2022-08-02T03:09:54.405Z,19.02
2022-08-02T03:12:28.825Z,19.00
2022-08-02T03:15:00.731Z,18.98
2022-08-02T03:17:40.847Z,18.97
2022-08-02T03:20:11.608Z,18.94
2022-08-02T03:22:39.233Z,18.93
2022-08-02T03:25:08.423Z,18.94
2022-08-02T03:27:36.624Z,18.92
2022-08-02T03:30:06.926Z,18.90
2022-08-02T03:32:38.375Z,18.92
2022-08-02T03:35:08.140Z,18.91
2022-08-02T03:37:37.785Z,18.87
2022-08-02T03:40:10.900Z,18.83
2022-08-02T03:42:39.477Z,18.82
2022-08-02T03:45:10.176Z,18.79
2022-08-02T03:47:39.601Z,18.79
2022-08-02T03:50:10.694Z,18.80
2022-08-02T03:52:38.920Z,18.79
2022-08-02T03:55:06.986Z,18.78
2022-08-02T03:57:38.191Z,18.74
2022-08-02T04:00:07.415Z,18.72
2022-08-02T04:02:35.743Z,18.66
2022-08-02T04:05:04.304Z,18.63
2022-08-02T04:08:31.811Z,18.58
2022-08-02T04:10:19.632Z,18.54
2022-08-02T04:12:47.256Z,18.52
2022-08-02T04:15:16.067Z,18.51
2022-08-02T04:17:56.681Z,18.47
2022-08-02T04:20:29.912Z,18.44
2022-08-02T04:23:07.369Z,18.42
2022-08-02T04:25:40.228Z,18.43
2022-08-02T04:28:15.584Z,18.40
2022-08-02T04:30:47.175Z,18.36
2022-08-02T04:33:15.685Z,18.30
2022-08-02T04:35:43.774Z,18.31
2022-08-02T04:38:15.694Z,18.31
2022-08-02T04:40:52.193Z,18.26
2022-08-02T04:43:20.253Z,18.11
2022-08-02T04:45:52.510Z,18.06
2022-08-02T04:48:20.867Z,17.97
2022-08-02T04:50:48.897Z,18.02
2022-08-02T04:53:17.028Z,18.03
2022-08-02T04:55:44.898Z,18.03
2022-08-02T04:58:40.869Z,18.05
2022-08-02T05:01:08.708Z,18.11
2022-08-02T05:03:36.286Z,18.13
2022-08-02T05:06:03.832Z,18.14
2022-08-02T05:08:53.215Z,18.12
2022-08-02T05:11:30.038Z,18.13
2022-08-02T05:14:07.641Z,18.14
2022-08-02T05:16:35.536Z,18.16
2022-08-02T05:19:03.510Z,18.16
2022-08-02T05:21:31.783Z,18.17
2022-08-02T05:23:59.157Z,18.13
2022-08-02T05:26:26.336Z,18.18
2022-08-02T05:28:53.680Z,18.19
2022-08-02T05:31:20.871Z,18.18
2022-08-02T05:33:48.062Z,18.23
2022-08-02T05:36:15.750Z,18.24
2022-08-02T05:38:43.117Z,18.28
2022-08-02T05:41:19.091Z,18.30
2022-08-02T05:43:47.499Z,18.32
2022-08-02T05:46:14.819Z,18.32
2022-08-02T05:48:42.048Z,18.36
2022-08-02T05:51:36.886Z,18.39
2022-08-02T05:54:27.624Z,18.42
2022-08-02T05:57:04.839Z,18.45
2022-08-02T06:00:07.776Z,18.48
2022-08-02T06:02:43.890Z,18.46
2022-08-02T06:05:20.915Z,18.46
2022-08-02T06:07:50.097Z,18.51
2022-08-02T06:10:23.069Z,18.54
2022-08-02T06:13:01.246Z,18.52
2022-08-02T06:15:28.893Z,18.59
2022-08-02T06:17:57.433Z,18.66
2022-08-02T06:20:27.275Z,18.70
2022-08-02T06:22:59.031Z,18.67
2022-08-02T06:25:50.424Z,18.62
2022-08-02T06:28:19.552Z,18.58
2022-08-02T06:30:47.394Z,18.60
2022-08-02T06:33:24.206Z,18.61
2022-08-02T06:36:32.469Z,18.60
2022-08-02T06:39:08.485Z,18.60
2022-08-02T06:41:41.823Z,18.61
2022-08-02T06:44:43.071Z,18.61
2022-08-02T06:47:11.065Z,18.65
2022-08-02T06:49:51.714Z,18.62
2022-08-02T06:52:30.619Z,18.64
2022-08-02T06:55:01.266Z,18.64
2022-08-02T06:57:29.967Z,18.66
2022-08-02T06:59:57.679Z,18.69
2022-08-02T07:02:25.546Z,18.74
2022-08-02T07:04:52.877Z,18.76
2022-08-02T07:07:20.181Z,18.82
2022-08-02T07:09:56.275Z,18.90
2022-08-02T07:12:30.308Z,18.95
2022-08-02T07:15:02.874Z,18.96
2022-08-02T07:17:30.678Z,19.04
2022-08-02T07:19:59.150Z,19.10
2022-08-02T07:22:28.285Z,19.14
2022-08-02T07:24:59.294Z,19.19
2022-08-02T07:27:27.907Z,19.25
2022-08-02T07:29:55.819Z,19.29
2022-08-02T07:32:26.385Z,19.35
2022-08-02T07:34:55.650Z,19.38
2022-08-02T07:37:53.306Z,19.43
2022-08-02T07:40:20.059Z,19.48
2022-08-02T07:42:51.323Z,19.54
2022-08-02T07:45:19.974Z,19.60
2022-08-02T07:47:47.452Z,19.63
2022-08-02T07:50:18.861Z,19.69
2022-08-02T07:52:47.287Z,19.73
2022-08-02T07:55:16.830Z,19.78
2022-08-02T07:57:46.791Z,19.82
2022-08-02T08:00:16.058Z,19.87
2022-08-02T08:02:44.414Z,19.85
2022-08-02T08:05:12.365Z,19.93
2022-08-02T08:07:40.023Z,19.94
2022-08-02T08:10:08.500Z,19.99
2022-08-02T08:12:47.578Z,19.99
2022-08-02T08:15:14.846Z,19.96
2022-08-02T08:17:42.015Z,19.96
2022-08-02T08:20:14.030Z,19.92
2022-08-02T08:22:43.052Z,19.95
2022-08-02T08:25:10.706Z,19.98
2022-08-02T08:27:38.333Z,19.96
2022-08-02T08:30:06.232Z,20.01
2022-08-02T08:32:33.459Z,19.98
2022-08-02T08:35:00.889Z,20.01
2022-08-02T08:37:38.354Z,20.02
2022-08-02T08:40:10.823Z,20.03
2022-08-02T08:42:39.719Z,20.03
2022-08-02T08:45:08.278Z,19.96
2022-08-02T08:47:42.392Z,19.94
2022-08-02T08:50:24.738Z,20.02
2022-08-02T08:53:08.083Z,20.16
2022-08-02T08:55:37.972Z,20.30
2022-08-02T08:58:06.609Z,20.41
2022-08-02T09:00:36.684Z,20.52
2022-08-02T09:03:08.851Z,20.58
2022-08-02T09:05:41.066Z,20.63
2022-08-02T09:08:11.307Z,20.71
2022-08-02T09:10:48.123Z,20.73
2022-08-02T09:13:38.664Z,20.83
2022-08-02T09:16:14.027Z,20.91
2022-08-02T09:18:47.084Z,21.00
2022-08-02T09:21:17.343Z,21.12
2022-08-02T09:23:53.735Z,21.20
2022-08-02T09:26:24.000Z,21.27
2022-08-02T09:28:59.977Z,21.30
2022-08-02T09:31:27.986Z,21.30
2022-08-02T09:34:00.747Z,21.36
2022-08-02T09:36:45.521Z,21.42
2022-08-02T09:39:16.090Z,21.52
2022-08-02T09:41:45.442Z,21.60
2022-08-02T09:44:16.177Z,21.66
2022-08-02T09:46:46.420Z,21.68
2022-08-02T09:49:19.189Z,21.66
2022-08-02T09:51:46.402Z,21.63
2022-08-02T09:54:25.849Z,21.68
2022-08-02T09:57:01.682Z,21.74
2022-08-02T09:59:31.161Z,21.87
2022-08-02T10:02:17.162Z,21.97
2022-08-02T10:04:53.289Z,22.01
2022-08-02T10:07:22.987Z,22.04
2022-08-02T10:09:52.560Z,22.01
2022-08-02T10:12:21.797Z,21.96
2022-08-02T10:14:51.200Z,21.99
2022-08-02T10:17:20.975Z,22.02
2022-08-02T10:20:00.532Z,22.07
2022-08-02T10:22:33.859Z,22.09
2022-08-02T10:25:04.436Z,22.12
2022-08-02T10:27:49.284Z,22.16
2022-08-02T10:30:25.225Z,22.17
2022-08-02T10:32:56.428Z,22.26
2022-08-02T10:35:26.691Z,22.29
2022-08-02T10:38:00.916Z,22.34
2022-08-02T10:40:54.271Z,22.36
2022-08-02T10:43:36.104Z,22.37
2022-08-02T10:46:32.439Z,22.45
2022-08-02T10:49:29.749Z,22.44
2022-08-02T10:52:01.576Z,22.51
2022-08-02T10:54:40.986Z,22.55
2022-08-02T10:57:23.046Z,22.62
2022-08-02T11:00:00.805Z,22.67
2022-08-02T11:02:46.616Z,22.63
2022-08-02T11:05:42.854Z,22.56
2022-08-02T11:08:22.595Z,22.67
2022-08-02T11:10:50.110Z,22.79
2022-08-02T11:13:19.162Z,22.93
2022-08-02T11:15:54.204Z,23.06
2022-08-02T11:18:23.762Z,23.19
2022-08-02T11:21:28.697Z,23.30
2022-08-02T11:24:16.793Z,23.38
2022-08-02T11:26:45.499Z,23.44
2022-08-02T11:29:15.846Z,23.49
2022-08-02T11:31:53.889Z,23.53
2022-08-02T11:34:37.472Z,23.57
2022-08-02T11:37:06.037Z,23.67
2022-08-02T11:39:33.250Z,23.72
2022-08-02T11:42:01.547Z,23.75
2022-08-02T11:44:39.083Z,23.82
2022-08-02T11:47:06.821Z,23.84
2022-08-02T11:49:34.445Z,23.86
2022-08-02T11:52:07.777Z,23.81
2022-08-02T11:54:37.483Z,23.82
2022-08-02T11:57:21.142Z,23.83
2022-08-02T11:59:51.089Z,23.85
2022-08-02T12:02:20.296Z,23.89
2022-08-02T12:04:59.615Z,23.94
2022-08-02T12:07:45.750Z,23.92
2022-08-02T12:10:20.698Z,23.95
2022-08-02T12:12:59.899Z,23.95
2022-08-02T12:15:30.465Z,24.09
2022-08-02T12:17:58.539Z,24.33
2022-08-02T12:20:37.171Z,24.60
2022-08-02T12:23:05.525Z,24.84
2022-08-02T12:25:34.066Z,25.15
2022-08-02T12:28:17.868Z,25.33
2022-08-02T12:30:59.109Z,25.32
2022-08-02T12:33:45.362Z,25.29
2022-08-02T12:36:21.267Z,25.30
2022-08-02T12:39:00.957Z,25.21
2022-08-02T12:41:30.577Z,25.18
2022-08-02T12:44:00.784Z,25.07
2022-08-02T12:46:28.298Z,24.94
2022-08-02T12:49:17.483Z,24.82
2022-08-02T12:51:56.902Z,24.73
2022-08-02T12:54:39.398Z,24.67
2022-08-02T12:57:16.746Z,24.64
2022-08-02T12:59:51.760Z,24.60
2022-08-02T13:02:20.125Z,24.64
2022-08-02T13:04:49.632Z,24.62
2022-08-02T13:07:18.832Z,24.64
2022-08-02T13:09:46.107Z,24.61
2022-08-02T13:12:13.594Z,24.64
2022-08-02T13:14:41.897Z,24.65
2022-08-02T13:17:11.690Z,24.57
2022-08-02T13:19:39.315Z,24.61
2022-08-02T13:22:08.456Z,24.63
2022-08-02T13:24:55.129Z,24.67
2022-08-02T13:27:28.566Z,24.79
2022-08-02T13:29:57.970Z,24.91
2022-08-02T13:32:26.292Z,25.05
2022-08-02T13:34:53.491Z,25.34
2022-08-02T13:37:20.899Z,25.60
2022-08-02T13:40:11.728Z,25.82
2022-08-02T13:42:36.072Z,25.97
2022-08-02T13:45:12.545Z,26.14
2022-08-02T13:48:03.432Z,26.22
2022-08-02T13:50:32.326Z,26.19
2022-08-02T13:52:59.636Z,26.15
2022-08-02T13:55:26.857Z,26.07
2022-08-02T13:57:54.349Z,26.08
2022-08-02T14:00:35.532Z,26.02
2022-08-02T14:03:05.838Z,26.00
2022-08-02T14:05:39.382Z,26.00
2022-08-02T14:08:20.805Z,25.95
2022-08-02T14:10:49.631Z,25.97
2022-08-02T14:13:17.827Z,25.95
2022-08-02T14:15:45.653Z,25.97
2022-08-02T14:18:13.693Z,25.95
2022-08-02T14:20:41.454Z,25.89
2022-08-02T14:23:08.769Z,25.87
2022-08-02T14:25:35.992Z,25.81
2022-08-02T14:28:04.886Z,25.79
2022-08-02T14:30:32.242Z,25.72
2022-08-02T14:32:59.798Z,25.69
2022-08-02T14:35:27.293Z,25.67
2022-08-02T14:37:54.537Z,25.71
2022-08-02T14:40:27.771Z,25.78
2022-08-02T14:42:55.609Z,25.84
2022-08-02T14:45:22.854Z,25.92
2022-08-02T14:47:50.072Z,26.03
2022-08-02T14:50:18.374Z,26.24
2022-08-02T14:52:47.542Z,26.34
2022-08-02T14:55:18.023Z,26.28
2022-08-02T14:57:45.263Z,26.19
2022-08-02T15:00:13.629Z,26.07
2022-08-02T15:02:41.034Z,25.99
2022-08-02T15:05:08.801Z,25.91
2022-08-02T15:07:41.247Z,26.00
2022-08-02T15:10:10.105Z,26.18
2022-08-02T15:12:37.275Z,26.49
2022-08-02T15:15:05.015Z,26.87
2022-08-02T15:17:32.216Z,27.18
2022-08-02T15:20:05.614Z,27.49
2022-08-02T15:27:05.742Z,28.36
2022-08-02T15:29:34.759Z,28.52
2022-08-02T15:32:03.145Z,28.68
2022-08-02T15:34:30.331Z,28.89
2022-08-02T15:36:57.581Z,28.87
2022-08-02T15:39:25.093Z,28.79
2022-08-02T15:41:52.289Z,28.86
2022-08-02T15:44:19.563Z,28.99
2022-08-02T15:46:47.064Z,29.12
2022-08-02T15:49:14.338Z,29.28
2022-08-02T15:51:41.657Z,29.22
2022-08-02T15:54:09.002Z,29.25
2022-08-02T15:56:36.233Z,29.31
2022-08-02T15:59:03.738Z,29.40
2022-08-02T16:01:36.868Z,29.51
2022-08-02T16:04:07.471Z,29.64
2022-08-02T16:06:37.322Z,29.72
2022-08-02T16:09:05.301Z,29.75
2022-08-02T16:11:32.615Z,29.72
2022-08-02T16:13:59.807Z,29.66
2022-08-02T16:16:31.008Z,29.70
2022-08-02T16:22:38.119Z,29.36
2022-08-02T16:25:10.075Z,29.23
2022-08-02T16:27:59.492Z,29.05
2022-08-02T16:30:32.383Z,28.90
2022-08-02T16:32:59.647Z,28.84
2022-08-02T16:35:27.092Z,28.75
2022-08-02T16:37:54.958Z,28.59
2022-08-02T16:40:22.746Z,28.43
2022-08-02T16:42:50.869Z,28.26
2022-08-02T16:45:20.938Z,28.09
2022-08-02T16:47:56.154Z,27.89
2022-08-02T16:50:27.257Z,27.66
2022-08-02T16:52:57.244Z,27.40
2022-08-02T16:55:25.879Z,27.12
2022-08-02T16:57:57.602Z,26.93
2022-08-02T17:00:24.861Z,26.74
2022-08-02T17:02:52.116Z,26.57
2022-08-02T17:05:20.999Z,26.41
2022-08-02T17:08:07.209Z,26.24
2022-08-02T17:10:35.770Z,26.09
2022-08-02T17:13:11.403Z,25.98
2022-08-02T17:16:16.657Z,25.88
2022-08-02T17:18:28.921Z,25.76
2022-08-02T17:20:56.110Z,25.64
2022-08-02T17:23:23.509Z,25.55
2022-08-02T17:26:10.915Z,25.46
2022-08-02T17:29:03.816Z,25.35
2022-08-02T17:31:29.406Z,25.23
2022-08-02T17:34:16.811Z,25.11
2022-08-02T17:36:49.705Z,24.99
2022-08-02T17:39:20.251Z,24.87
2022-08-02T17:41:50.587Z,24.74
2022-08-02T17:44:37.491Z,24.64
2022-08-02T17:47:08.763Z,24.48
2022-08-02T17:49:44.366Z,24.39
2022-08-02T17:52:51.022Z,24.28
2022-08-02T17:55:09.256Z,24.17
2022-08-02T17:57:55.723Z,24.08
2022-08-02T18:00:23.650Z,24.00
2022-08-02T18:02:55.101Z,23.88
2022-08-02T18:05:39.329Z,23.80
2022-08-02T18:08:09.552Z,23.71
2022-08-02T18:10:37.331Z,23.64
2022-08-02T18:13:05.483Z,23.56
2022-08-02T18:15:33.221Z,23.50
2022-08-02T18:18:01.053Z,23.43
2022-08-02T18:20:28.343Z,23.37
2022-08-02T18:22:58.757Z,23.29
2022-08-02T18:25:37.014Z,23.19
2022-08-02T18:28:14.469Z,23.06
2022-08-02T18:30:43.774Z,22.98
2022-08-02T18:35:58.280Z,22.78
2022-08-02T18:38:27.002Z,22.72
2022-08-02T18:40:55.543Z,22.64
2022-08-02T18:43:25.517Z,22.50
2022-08-02T18:46:07.450Z,22.46
2022-08-02T18:48:46.932Z,22.40
2022-08-02T18:51:18.543Z,22.32
2022-08-02T18:53:46.975Z,22.24
2022-08-02T18:56:20.313Z,22.16
2022-08-02T18:58:56.576Z,22.08
2022-08-02T19:01:34.381Z,22.01
2022-08-02T19:04:04.580Z,21.96
2022-08-02T19:06:32.303Z,21.88
2022-08-02T19:09:11.127Z,21.81
2022-08-02T19:11:47.578Z,21.78
2022-08-02T19:14:27.320Z,21.71
2022-08-02T19:16:57.283Z,21.65
2022-08-02T19:19:28.693Z,21.59
2022-08-02T19:22:19.061Z,21.51
2022-08-02T19:24:48.821Z,21.44
2022-08-02T19:27:26.049Z,21.39
2022-08-02T19:29:59.273Z,21.29
2022-08-02T19:32:39.923Z,21.21
2022-08-02T19:35:19.766Z,21.11
2022-08-02T19:38:07.704Z,20.98
2022-08-02T19:40:38.299Z,20.93
2022-08-02T19:44:26.945Z,20.91
2022-08-02T19:45:57.082Z,20.85
2022-08-02T19:48:27.254Z,20.82
2022-08-02T19:51:01.131Z,20.77
2022-08-02T19:53:46.711Z,20.73
2022-08-02T19:56:20.494Z,20.68
2022-08-02T19:58:51.272Z,20.61
2022-08-02T20:01:23.480Z,20.58
2022-08-02T20:03:54.963Z,20.54
2022-08-02T20:06:29.805Z,20.46
2022-08-02T20:09:01.319Z,20.44
2022-08-02T20:11:34.388Z,20.42
2022-08-02T20:14:04.661Z,20.36
2022-08-02T20:16:34.175Z,20.33
2022-08-02T20:19:06.648Z,20.27
2022-08-02T20:21:37.627Z,20.22
2022-08-02T20:24:09.973Z,20.14
2022-08-02T20:26:40.689Z,20.12
2022-08-02T20:29:17.490Z,20.07
2022-08-02T20:32:04.378Z,20.00
2022-08-02T20:34:31.720Z,19.95
2022-08-02T20:37:56.339Z,19.88
2022-08-02T20:39:48.426Z,19.81
2022-08-02T20:42:23.313Z,19.80
2022-08-02T20:44:52.789Z,19.75
2022-08-02T20:47:28.280Z,19.69
2022-08-02T20:50:08.796Z,19.69
2022-08-02T20:52:37.687Z,19.66
2022-08-02T20:55:05.581Z,19.58
2022-08-02T20:57:49.021Z,19.57
2022-08-02T21:00:20.768Z,19.54
2022-08-02T21:05:54.413Z,19.53
2022-08-02T21:08:17.254Z,19.46
2022-08-02T21:10:50.489Z,19.44
2022-08-02T21:13:22.994Z,19.39
2022-08-02T21:15:52.176Z,19.35
2022-08-02T21:18:29.836Z,19.25
2022-08-02T21:21:02.137Z,19.26
2022-08-02T21:23:29.566Z,19.22
2022-08-02T21:25:57.805Z,19.17
2022-08-02T21:28:43.695Z,19.14
2022-08-02T21:31:14.328Z,19.05
2022-08-02T21:33:55.195Z,19.01
2022-08-02T21:36:33.752Z,19.00
2022-08-02T21:39:08.061Z,18.98
2022-08-02T21:41:46.331Z,18.96
2022-08-02T21:44:22.725Z,18.89
2022-08-02T21:46:55.899Z,18.83
2022-08-02T21:49:40.928Z,18.78
2022-08-02T21:52:14.037Z,18.72
2022-08-02T21:54:45.296Z,18.68
2022-08-02T21:57:15.443Z,18.68
2022-08-02T21:59:46.471Z,18.64
2022-08-02T22:02:16.723Z,18.60
2022-08-02T22:04:47.944Z,18.60
2022-08-02T22:07:17.807Z,18.58
2022-08-02T22:10:13.136Z,18.55
2022-08-02T22:12:42.072Z,18.49
2022-08-02T22:15:10.488Z,18.52
2022-08-02T22:17:53.510Z,18.50
2022-08-02T22:20:25.392Z,18.43
2022-08-02T22:22:56.537Z,18.41
2022-08-02T22:25:36.440Z,18.40
2022-08-02T22:28:35.620Z,18.36
2022-08-02T22:30:55.109Z,18.30
2022-08-02T22:33:33.272Z,18.27
2022-08-02T22:36:02.042Z,18.22
2022-08-02T22:38:29.389Z,18.18
2022-08-02T22:40:56.665Z,18.15
2022-08-02T22:43:23.938Z,18.11
2022-08-02T22:45:51.529Z,18.12
2022-08-02T22:48:18.933Z,18.09
2022-08-02T22:51:08.610Z,18.06
2022-08-02T22:53:36.271Z,18.04
2022-08-02T22:56:05.597Z,18.02
2022-08-02T22:58:33.295Z,17.97
2022-08-02T22:58:57.683Z,22.88
2022-08-02T23:01:01.202Z,17.95
2022-08-02T23:03:28.877Z,17.91
2022-08-02T23:05:56.344Z,17.88
2022-08-02T23:08:23.964Z,17.81
2022-08-02T23:10:51.541Z,17.78
2022-08-02T23:13:29.194Z,17.73
2022-08-02T23:15:56.455Z,17.71
2022-08-02T23:18:23.740Z,17.66
2022-08-02T23:20:50.932Z,17.64
2022-08-02T23:23:18.169Z,17.62
2022-08-02T23:25:45.776Z,17.61
2022-08-02T23:28:12.966Z,17.59
2022-08-02T23:30:40.316Z,17.57
2022-08-02T23:33:07.945Z,17.54
2022-08-02T23:35:35.213Z,17.50
2022-08-02T23:38:02.479Z,17.43
2022-08-02T23:40:39.455Z,17.41
2022-08-02T23:43:13.733Z,17.41
2022-08-02T23:45:45.445Z,17.40
2022-08-02T23:48:13.218Z,17.38
2022-08-02T23:50:40.444Z,17.37
2022-08-02T23:53:08.347Z,17.39
2022-08-02T23:55:35.616Z,17.37
2022-08-02T23:58:02.850Z,17.37
